sensor_id;sensor_type;location;lat;lon;timestamp;P1;durP1;ratioP1;P2;durP2;ratioP2
1308;SDS011;647;48.840;9.314;2024-03-25T00:02:06;57.17;;;3.60;;
1308;SDS011;647;48.840;9.314;2024-03-25T00:04:34;56.33;;;3.30;;
1308;SDS011;647;48.840;9.314;2024-03-25T00:07:00;62.60;;;3.87;;
1308;SDS011;647;48.840;9.314;2024-03-25T00:09:29;60.00;;;3.60;;
1308;SDS011;647;48.840;9.314;2024-03-25T00:11:55;57.10;;;4.03;;
1308;SDS011;647;48.840;9.314;2024-03-25T00:14:22;61.47;;;4.10;;
1308;SDS011;647;48.840;9.314;2024-03-25T00:16:49;57.63;;;3.57;;
1308;SDS011;647;48.840;9.314;2024-03-25T00:19:16;58.23;;;4.00;;
1308;SDS011;647;48.840;9.314;2024-03-25T00:21:42;58.27;;;3.40;;
1308;SDS011;647;48.840;9.314;2024-03-25T00:24:09;59.77;;;3.87;;
1308;SDS011;647;48.840;9.314;2024-03-25T00:26:38;57.70;;;3.83;;
1308;SDS011;647;48.840;9.314;2024-03-25T00:29:05;57.90;;;3.27;;
1308;SDS011;647;48.840;9.314;2024-03-25T00:31:32;56.53;;;3.67;;
1308;SDS011;647;48.840;9.314;2024-03-25T00:33:59;61.43;;;3.50;;
1308;SDS011;647;48.840;9.314;2024-03-25T00:36:25;65.20;;;3.93;;
1308;SDS011;647;48.840;9.314;2024-03-25T00:38:52;57.67;;;3.43;;
1308;SDS011;647;48.840;9.314;2024-03-25T00:41:20;56.10;;;3.40;;
1308;SDS011;647;48.840;9.314;2024-03-25T00:43:49;56.80;;;3.20;;
1308;SDS011;647;48.840;9.314;2024-03-25T00:46:15;58.00;;;3.63;;
1308;SDS011;647;48.840;9.314;2024-03-25T00:48:42;57.90;;;4.00;;
1308;SDS011;647;48.840;9.314;2024-03-25T00:51:09;56.80;;;3.73;;
1308;SDS011;647;48.840;9.314;2024-03-25T00:53:36;57.37;;;4.03;;
1308;SDS011;647;48.840;9.314;2024-03-25T00:56:03;60.17;;;4.83;;
1308;SDS011;647;48.840;9.314;2024-03-25T00:58:31;58.47;;;3.90;;
1308;SDS011;647;48.840;9.314;2024-03-25T01:00:58;61.23;;;4.63;;
1308;SDS011;647;48.840;9.314;2024-03-25T01:03:25;59.07;;;3.83;;
1308;SDS011;647;48.840;9.314;2024-03-25T01:05:52;58.80;;;4.10;;
1308;SDS011;647;48.840;9.314;2024-03-25T01:08:19;57.47;;;4.37;;
1308;SDS011;647;48.840;9.314;2024-03-25T01:10:45;58.43;;;4.57;;
1308;SDS011;647;48.840;9.314;2024-03-25T01:13:12;59.83;;;4.30;;
1308;SDS011;647;48.840;9.314;2024-03-25T01:15:39;61.30;;;4.50;;
1308;SDS011;647;48.840;9.314;2024-03-25T01:18:08;59.80;;;4.50;;
1308;SDS011;647;48.840;9.314;2024-03-25T01:20:34;60.27;;;4.27;;
1308;SDS011;647;48.840;9.314;2024-03-25T01:23:02;58.80;;;4.50;;
1308;SDS011;647;48.840;9.314;2024-03-25T01:25:28;57.07;;;3.93;;
1308;SDS011;647;48.840;9.314;2024-03-25T01:27:55;58.20;;;4.13;;
1308;SDS011;647;48.840;9.314;2024-03-25T01:30:22;59.07;;;4.27;;
1308;SDS011;647;48.840;9.314;2024-03-25T01:32:49;61.80;;;3.90;;
1308;SDS011;647;48.840;9.314;2024-03-25T01:35:17;62.30;;;4.10;;
1308;SDS011;647;48.840;9.314;2024-03-25T01:37:44;57.47;;;4.00;;
1308;SDS011;647;48.840;9.314;2024-03-25T01:40:10;58.50;;;4.83;;
1308;SDS011;647;48.840;9.314;2024-03-25T01:42:38;58.50;;;4.30;;
1308;SDS011;647;48.840;9.314;2024-03-25T01:45:04;58.57;;;3.97;;
1308;SDS011;647;48.840;9.314;2024-03-25T01:47:32;58.53;;;3.90;;
1308;SDS011;647;48.840;9.314;2024-03-25T01:50:00;60.93;;;4.37;;
1308;SDS011;647;48.840;9.314;2024-03-25T01:52:30;58.40;;;4.20;;
1308;SDS011;647;48.840;9.314;2024-03-25T01:54:56;57.43;;;4.03;;
1308;SDS011;647;48.840;9.314;2024-03-25T01:57:24;56.57;;;3.70;;
1308;SDS011;647;48.840;9.314;2024-03-25T01:59:51;59.90;;;3.83;;
1308;SDS011;647;48.840;9.314;2024-03-25T02:02:19;59.70;;;4.13;;
1308;SDS011;647;48.840;9.314;2024-03-25T02:04:45;62.70;;;4.37;;
1308;SDS011;647;48.840;9.314;2024-03-25T02:07:12;61.30;;;4.30;;
1308;SDS011;647;48.840;9.314;2024-03-25T02:09:40;59.20;;;4.13;;
1308;SDS011;647;48.840;9.314;2024-03-25T02:12:08;57.17;;;3.93;;
1308;SDS011;647;48.840;9.314;2024-03-25T02:14:34;59.10;;;3.97;;
1308;SDS011;647;48.840;9.314;2024-03-25T02:17:01;58.57;;;4.73;;
1308;SDS011;647;48.840;9.314;2024-03-25T02:19:28;57.70;;;4.20;;
1308;SDS011;647;48.840;9.314;2024-03-25T02:21:57;57.27;;;3.83;;
1308;SDS011;647;48.840;9.314;2024-03-25T02:24:23;57.70;;;4.13;;
1308;SDS011;647;48.840;9.314;2024-03-25T02:26:52;57.83;;;3.80;;
1308;SDS011;647;48.840;9.314;2024-03-25T02:29:18;61.00;;;5.07;;
1308;SDS011;647;48.840;9.314;2024-03-25T02:31:46;58.93;;;4.13;;
1308;SDS011;647;48.840;9.314;2024-03-25T02:34:13;59.77;;;4.03;;
1308;SDS011;647;48.840;9.314;2024-03-25T02:36:40;58.83;;;4.13;;
1308;SDS011;647;48.840;9.314;2024-03-25T02:39:07;58.53;;;4.00;;
1308;SDS011;647;48.840;9.314;2024-03-25T02:41:35;66.87;;;3.90;;
1308;SDS011;647;48.840;9.314;2024-03-25T02:44:02;58.27;;;4.57;;
1308;SDS011;647;48.840;9.314;2024-03-25T02:46:30;58.73;;;5.60;;
1308;SDS011;647;48.840;9.314;2024-03-25T02:48:56;58.07;;;4.63;;
1308;SDS011;647;48.840;9.314;2024-03-25T02:51:23;59.50;;;3.80;;
1308;SDS011;647;48.840;9.314;2024-03-25T02:53:49;62.80;;;4.53;;
1308;SDS011;647;48.840;9.314;2024-03-25T02:56:17;58.03;;;4.20;;
1308;SDS011;647;48.840;9.314;2024-03-25T02:58:43;60.53;;;4.27;;
1308;SDS011;647;48.840;9.314;2024-03-25T03:01:11;58.90;;;4.23;;
1308;SDS011;647;48.840;9.314;2024-03-25T03:03:38;58.40;;;4.03;;
1308;SDS011;647;48.840;9.314;2024-03-25T03:06:05;56.93;;;4.27;;
1308;SDS011;647;48.840;9.314;2024-03-25T03:08:31;58.13;;;3.57;;
1308;SDS011;647;48.840;9.314;2024-03-25T03:10:59;57.10;;;3.67;;
1308;SDS011;647;48.840;9.314;2024-03-25T03:13:25;56.67;;;3.77;;
1308;SDS011;647;48.840;9.314;2024-03-25T03:15:52;61.90;;;4.17;;
1308;SDS011;647;48.840;9.314;2024-03-25T03:18:20;57.50;;;4.00;;
1308;SDS011;647;48.840;9.314;2024-03-25T03:20:47;59.80;;;3.63;;
1308;SDS011;647;48.840;9.314;2024-03-25T03:23:14;59.67;;;4.00;;
1308;SDS011;647;48.840;9.314;2024-03-25T03:25:42;58.37;;;4.03;;
1308;SDS011;647;48.840;9.314;2024-03-25T03:28:08;63.10;;;6.37;;
1308;SDS011;647;48.840;9.314;2024-03-25T03:30:35;58.73;;;4.10;;
1308;SDS011;647;48.840;9.314;2024-03-25T03:33:02;61.93;;;4.20;;
1308;SDS011;647;48.840;9.314;2024-03-25T03:35:30;57.37;;;4.33;;
1308;SDS011;647;48.840;9.314;2024-03-25T03:37:58;58.67;;;4.00;;
1308;SDS011;647;48.840;9.314;2024-03-25T03:40:25;59.07;;;3.73;;
1308;SDS011;647;48.840;9.314;2024-03-25T03:42:52;59.67;;;4.27;;
1308;SDS011;647;48.840;9.314;2024-03-25T03:45:19;61.40;;;4.57;;
1308;SDS011;647;48.840;9.314;2024-03-25T03:47:45;58.00;;;3.93;;
1308;SDS011;647;48.840;9.314;2024-03-25T03:50:12;61.90;;;4.07;;
1308;SDS011;647;48.840;9.314;2024-03-25T03:52:40;59.13;;;4.40;;
1308;SDS011;647;48.840;9.314;2024-03-25T03:55:07;57.20;;;3.97;;
1308;SDS011;647;48.840;9.314;2024-03-25T03:57:34;59.67;;;4.30;;
1308;SDS011;647;48.840;9.314;2024-03-25T04:00:02;57.20;;;3.93;;
1308;SDS011;647;48.840;9.314;2024-03-25T04:02:29;58.63;;;4.10;;
1308;SDS011;647;48.840;9.314;2024-03-25T04:04:57;59.00;;;4.00;;
1308;SDS011;647;48.840;9.314;2024-03-25T04:07:23;58.47;;;4.80;;
1308;SDS011;647;48.840;9.314;2024-03-25T04:09:54;57.70;;;4.67;;
1308;SDS011;647;48.840;9.314;2024-03-25T04:12:20;60.27;;;4.70;;
1308;SDS011;647;48.840;9.314;2024-03-25T04:14:47;57.80;;;4.40;;
1308;SDS011;647;48.840;9.314;2024-03-25T04:17:14;57.40;;;4.37;;
1308;SDS011;647;48.840;9.314;2024-03-25T04:19:41;58.73;;;4.80;;
1308;SDS011;647;48.840;9.314;2024-03-25T04:22:07;61.67;;;4.90;;
1308;SDS011;647;48.840;9.314;2024-03-25T04:24:35;61.20;;;5.20;;
1308;SDS011;647;48.840;9.314;2024-03-25T04:27:02;61.00;;;5.03;;
1308;SDS011;647;48.840;9.314;2024-03-25T04:29:30;58.47;;;5.80;;
1308;SDS011;647;48.840;9.314;2024-03-25T04:31:56;59.33;;;5.00;;
1308;SDS011;647;48.840;9.314;2024-03-25T04:34:23;61.30;;;6.20;;
1308;SDS011;647;48.840;9.314;2024-03-25T04:36:49;57.93;;;5.20;;
1308;SDS011;647;48.840;9.314;2024-03-25T04:39:18;58.70;;;4.40;;
1308;SDS011;647;48.840;9.314;2024-03-25T04:41:44;60.57;;;5.93;;
1308;SDS011;647;48.840;9.314;2024-03-25T04:44:12;58.43;;;4.97;;
1308;SDS011;647;48.840;9.314;2024-03-25T04:46:39;58.30;;;5.03;;
1308;SDS011;647;48.840;9.314;2024-03-25T04:49:05;58.30;;;5.20;;
1308;SDS011;647;48.840;9.314;2024-03-25T04:51:31;59.87;;;5.33;;
1308;SDS011;647;48.840;9.314;2024-03-25T04:53:58;59.30;;;5.33;;
1308;SDS011;647;48.840;9.314;2024-03-25T04:56:24;58.67;;;5.37;;
1308;SDS011;647;48.840;9.314;2024-03-25T04:58:50;60.23;;;5.67;;
1308;SDS011;647;48.840;9.314;2024-03-25T05:01:18;63.20;;;5.37;;
1308;SDS011;647;48.840;9.314;2024-03-25T05:03:44;60.60;;;5.33;;
1308;SDS011;647;48.840;9.314;2024-03-25T05:06:10;60.10;;;5.73;;
1308;SDS011;647;48.840;9.314;2024-03-25T05:08:37;65.17;;;6.20;;
1308;SDS011;647;48.840;9.314;2024-03-25T05:11:03;61.00;;;5.30;;
1308;SDS011;647;48.840;9.314;2024-03-25T05:13:30;60.40;;;5.23;;
1308;SDS011;647;48.840;9.314;2024-03-25T05:15:56;60.07;;;5.50;;
1308;SDS011;647;48.840;9.314;2024-03-25T05:18:24;59.10;;;5.23;;
1308;SDS011;647;48.840;9.314;2024-03-25T05:20:50;63.53;;;5.70;;
1308;SDS011;647;48.840;9.314;2024-03-25T05:23:16;59.10;;;4.80;;
1308;SDS011;647;48.840;9.314;2024-03-25T05:25:42;59.17;;;5.90;;
1308;SDS011;647;48.840;9.314;2024-03-25T05:28:09;58.67;;;4.93;;
1308;SDS011;647;48.840;9.314;2024-03-25T05:30:35;66.03;;;5.30;;
1308;SDS011;647;48.840;9.314;2024-03-25T05:33:01;67.70;;;5.57;;
1308;SDS011;647;48.840;9.314;2024-03-25T05:35:29;57.77;;;5.13;;
1308;SDS011;647;48.840;9.314;2024-03-25T05:37:55;59.87;;;4.73;;
1308;SDS011;647;48.840;9.314;2024-03-25T05:40:22;61.87;;;5.63;;
1308;SDS011;647;48.840;9.314;2024-03-25T05:42:48;58.80;;;4.80;;
1308;SDS011;647;48.840;9.314;2024-03-25T05:45:14;58.40;;;5.47;;
1308;SDS011;647;48.840;9.314;2024-03-25T05:47:41;60.80;;;6.10;;
1308;SDS011;647;48.840;9.314;2024-03-25T05:50:07;58.40;;;5.67;;
1308;SDS011;647;48.840;9.314;2024-03-25T05:52:35;59.87;;;5.33;;
1308;SDS011;647;48.840;9.314;2024-03-25T05:55:01;61.90;;;6.87;;
1308;SDS011;647;48.840;9.314;2024-03-25T05:57:27;59.80;;;6.83;;
1308;SDS011;647;48.840;9.314;2024-03-25T05:59:54;66.43;;;6.77;;
1308;SDS011;647;48.840;9.314;2024-03-25T06:02:20;60.57;;;5.97;;
1308;SDS011;647;48.840;9.314;2024-03-25T06:04:46;58.30;;;5.27;;
1308;SDS011;647;48.840;9.314;2024-03-25T06:07:12;59.17;;;5.33;;
1308;SDS011;647;48.840;9.314;2024-03-25T06:09:40;60.67;;;5.60;;
1308;SDS011;647;48.840;9.314;2024-03-25T06:12:06;61.47;;;5.70;;
1308;SDS011;647;48.840;9.314;2024-03-25T06:14:33;62.60;;;7.20;;
1308;SDS011;647;48.840;9.314;2024-03-25T06:16:59;58.30;;;5.27;;
1308;SDS011;647;48.840;9.314;2024-03-25T06:19:25;60.07;;;5.93;;
1308;SDS011;647;48.840;9.314;2024-03-25T06:21:51;60.70;;;5.23;;
1308;SDS011;647;48.840;9.314;2024-03-25T06:24:18;60.67;;;4.97;;
1308;SDS011;647;48.840;9.314;2024-03-25T06:26:45;62.20;;;5.80;;
1308;SDS011;647;48.840;9.314;2024-03-25T06:29:12;59.50;;;5.73;;
1308;SDS011;647;48.840;9.314;2024-03-25T06:31:38;59.03;;;6.50;;
1308;SDS011;647;48.840;9.314;2024-03-25T06:34:23;63.93;;;7.40;;
1308;SDS011;647;48.840;9.314;2024-03-25T06:36:49;58.80;;;5.87;;
1308;SDS011;647;48.840;9.314;2024-03-25T06:39:15;62.40;;;6.13;;
1308;SDS011;647;48.840;9.314;2024-03-25T06:41:41;60.50;;;5.37;;
1308;SDS011;647;48.840;9.314;2024-03-25T06:44:09;59.93;;;5.70;;
1308;SDS011;647;48.840;9.314;2024-03-25T06:46:36;63.80;;;5.50;;
1308;SDS011;647;48.840;9.314;2024-03-25T06:49:02;61.00;;;6.03;;
1308;SDS011;647;48.840;9.314;2024-03-25T06:51:28;59.67;;;4.97;;
1308;SDS011;647;48.840;9.314;2024-03-25T06:53:54;63.00;;;5.47;;
1308;SDS011;647;48.840;9.314;2024-03-25T06:56:21;59.17;;;5.27;;
1308;SDS011;647;48.840;9.314;2024-03-25T06:58:47;60.33;;;4.83;;
1308;SDS011;647;48.840;9.314;2024-03-25T07:01:15;58.30;;;5.07;;
1308;SDS011;647;48.840;9.314;2024-03-25T07:03:41;60.80;;;5.50;;
1308;SDS011;647;48.840;9.314;2024-03-25T07:06:07;58.53;;;5.60;;
1308;SDS011;647;48.840;9.314;2024-03-25T07:08:34;60.07;;;5.40;;
1308;SDS011;647;48.840;9.314;2024-03-25T07:11:00;60.23;;;5.50;;
1308;SDS011;647;48.840;9.314;2024-03-25T07:13:26;60.30;;;6.43;;
1308;SDS011;647;48.840;9.314;2024-03-25T07:15:53;59.30;;;5.40;;
1308;SDS011;647;48.840;9.314;2024-03-25T07:18:20;59.13;;;5.33;;
1308;SDS011;647;48.840;9.314;2024-03-25T07:20:47;59.70;;;5.87;;
1308;SDS011;647;48.840;9.314;2024-03-25T07:23:13;60.93;;;4.23;;
1308;SDS011;647;48.840;9.314;2024-03-25T07:25:39;59.23;;;5.10;;
1308;SDS011;647;48.840;9.314;2024-03-25T07:28:06;63.07;;;5.40;;
1308;SDS011;647;48.840;9.314;2024-03-25T07:30:32;60.87;;;5.53;;
1308;SDS011;647;48.840;9.314;2024-03-25T07:32:58;59.60;;;6.00;;
1308;SDS011;647;48.840;9.314;2024-03-25T07:35:26;60.00;;;5.50;;
1308;SDS011;647;48.840;9.314;2024-03-25T07:37:52;60.30;;;4.90;;
1308;SDS011;647;48.840;9.314;2024-03-25T07:40:19;60.27;;;6.10;;
1308;SDS011;647;48.840;9.314;2024-03-25T07:42:45;59.53;;;5.00;;
1308;SDS011;647;48.840;9.314;2024-03-25T07:45:12;61.50;;;5.50;;
1308;SDS011;647;48.840;9.314;2024-03-25T07:47:38;58.53;;;4.63;;
1308;SDS011;647;48.840;9.314;2024-03-25T07:50:05;65.60;;;6.00;;
1308;SDS011;647;48.840;9.314;2024-03-25T07:52:32;64.53;;;4.90;;
1308;SDS011;647;48.840;9.314;2024-03-25T07:54:59;58.00;;;4.60;;
1308;SDS011;647;48.840;9.314;2024-03-25T07:57:25;58.70;;;5.00;;
1308;SDS011;647;48.840;9.314;2024-03-25T07:59:51;60.27;;;5.10;;
1308;SDS011;647;48.840;9.314;2024-03-25T08:02:18;61.03;;;4.80;;
1308;SDS011;647;48.840;9.314;2024-03-25T08:04:44;61.30;;;4.20;;
1308;SDS011;647;48.840;9.314;2024-03-25T08:07:10;63.50;;;5.00;;
1308;SDS011;647;48.840;9.314;2024-03-25T08:09:38;59.50;;;4.40;;
1308;SDS011;647;48.840;9.314;2024-03-25T08:12:05;59.03;;;3.97;;
1308;SDS011;647;48.840;9.314;2024-03-25T08:14:31;57.97;;;4.00;;
1308;SDS011;647;48.840;9.314;2024-03-25T08:16:57;58.30;;;4.30;;
1308;SDS011;647;48.840;9.314;2024-03-25T08:19:24;58.33;;;4.23;;
1308;SDS011;647;48.840;9.314;2024-03-25T08:21:50;58.00;;;4.20;;
1308;SDS011;647;48.840;9.314;2024-03-25T08:24:16;59.50;;;3.97;;
1308;SDS011;647;48.840;9.314;2024-03-25T08:26:44;65.03;;;4.30;;
1308;SDS011;647;48.840;9.314;2024-03-25T08:29:10;63.77;;;4.97;;
1308;SDS011;647;48.840;9.314;2024-03-25T08:31:36;59.40;;;4.47;;
1308;SDS011;647;48.840;9.314;2024-03-25T08:34:03;57.77;;;4.10;;
1308;SDS011;647;48.840;9.314;2024-03-25T08:36:29;59.17;;;3.97;;
1308;SDS011;647;48.840;9.314;2024-03-25T08:38:55;57.27;;;3.50;;
1308;SDS011;647;48.840;9.314;2024-03-25T08:41:22;57.90;;;3.77;;
1308;SDS011;647;48.840;9.314;2024-03-25T08:43:49;62.60;;;3.53;;
1308;SDS011;647;48.840;9.314;2024-03-25T08:46:16;59.03;;;4.27;;
1308;SDS011;647;48.840;9.314;2024-03-25T08:48:42;59.27;;;3.60;;
1308;SDS011;647;48.840;9.314;2024-03-25T08:51:08;59.63;;;4.07;;
1308;SDS011;647;48.840;9.314;2024-03-25T08:53:34;64.00;;;4.13;;
1308;SDS011;647;48.840;9.314;2024-03-25T08:56:01;57.87;;;3.70;;
1308;SDS011;647;48.840;9.314;2024-03-25T08:58:27;58.67;;;3.23;;
1308;SDS011;647;48.840;9.314;2024-03-25T09:00:55;59.97;;;3.20;;
1308;SDS011;647;48.840;9.314;2024-03-25T09:03:21;57.93;;;3.63;;
1308;SDS011;647;48.840;9.314;2024-03-25T09:05:47;59.30;;;3.90;;
1308;SDS011;647;48.840;9.314;2024-03-25T09:08:14;61.70;;;3.60;;
1308;SDS011;647;48.840;9.314;2024-03-25T09:10:42;59.17;;;4.37;;
1308;SDS011;647;48.840;9.314;2024-03-25T09:13:30;60.80;;;3.67;;
1308;SDS011;647;48.840;9.314;2024-03-25T09:15:58;61.10;;;3.67;;
1308;SDS011;647;48.840;9.314;2024-03-25T09:18:24;59.13;;;3.10;;
1308;SDS011;647;48.840;9.314;2024-03-25T09:20:51;57.13;;;3.60;;
1308;SDS011;647;48.840;9.314;2024-03-25T09:23:17;62.63;;;3.60;;
1308;SDS011;647;48.840;9.314;2024-03-25T09:25:52;57.60;;;3.10;;
1308;SDS011;647;48.840;9.314;2024-03-25T09:28:19;60.70;;;3.50;;
1308;SDS011;647;48.840;9.314;2024-03-25T09:30:45;56.30;;;2.80;;
1308;SDS011;647;48.840;9.314;2024-03-25T09:33:13;57.80;;;3.30;;
1308;SDS011;647;48.840;9.314;2024-03-25T09:35:39;57.40;;;3.10;;
1308;SDS011;647;48.840;9.314;2024-03-25T09:38:06;57.77;;;3.40;;
1308;SDS011;647;48.840;9.314;2024-03-25T09:40:32;57.67;;;3.20;;
1308;SDS011;647;48.840;9.314;2024-03-25T09:43:02;56.70;;;2.70;;
1308;SDS011;647;48.840;9.314;2024-03-25T09:45:29;57.87;;;2.90;;
1308;SDS011;647;48.840;9.314;2024-03-25T09:47:55;57.37;;;3.40;;
1308;SDS011;647;48.840;9.314;2024-03-25T09:50:23;57.27;;;2.83;;
1308;SDS011;647;48.840;9.314;2024-03-25T09:52:49;62.00;;;3.60;;
1308;SDS011;647;48.840;9.314;2024-03-25T09:55:16;57.50;;;3.17;;
1308;SDS011;647;48.840;9.314;2024-03-25T09:57:42;59.30;;;3.50;;
1308;SDS011;647;48.840;9.314;2024-03-25T10:00:10;58.70;;;3.37;;
1308;SDS011;647;48.840;9.314;2024-03-25T10:02:36;57.77;;;2.90;;
1308;SDS011;647;48.840;9.314;2024-03-25T10:05:03;57.47;;;3.00;;
1308;SDS011;647;48.840;9.314;2024-03-25T10:07:35;58.20;;;2.90;;
1308;SDS011;647;48.840;9.314;2024-03-25T10:10:03;58.40;;;3.50;;
1308;SDS011;647;48.840;9.314;2024-03-25T10:12:30;56.70;;;3.10;;
1308;SDS011;647;48.840;9.314;2024-03-25T10:14:56;58.93;;;3.20;;
1308;SDS011;647;48.840;9.314;2024-03-25T10:17:22;57.80;;;2.77;;
1308;SDS011;647;48.840;9.314;2024-03-25T10:19:49;60.97;;;3.07;;
1308;SDS011;647;48.840;9.314;2024-03-25T10:22:15;58.03;;;2.47;;
1308;SDS011;647;48.840;9.314;2024-03-25T10:24:43;56.87;;;3.00;;
1308;SDS011;647;48.840;9.314;2024-03-25T10:27:10;56.77;;;2.80;;
1308;SDS011;647;48.840;9.314;2024-03-25T10:29:36;61.33;;;3.10;;
1308;SDS011;647;48.840;9.314;2024-03-25T10:32:03;58.37;;;2.70;;
1308;SDS011;647;48.840;9.314;2024-03-25T10:34:30;57.60;;;3.23;;
1308;SDS011;647;48.840;9.314;2024-03-25T10:36:57;58.93;;;2.90;;
1308;SDS011;647;48.840;9.314;2024-03-25T10:39:25;57.50;;;3.03;;
1308;SDS011;647;48.840;9.314;2024-03-25T10:41:54;58.33;;;3.57;;
1308;SDS011;647;48.840;9.314;2024-03-25T10:44:21;56.70;;;3.00;;
1308;SDS011;647;48.840;9.314;2024-03-25T10:46:48;58.37;;;3.40;;
1308;SDS011;647;48.840;9.314;2024-03-25T10:49:16;58.80;;;3.10;;
1308;SDS011;647;48.840;9.314;2024-03-25T10:51:43;59.63;;;2.83;;
1308;SDS011;647;48.840;9.314;2024-03-25T10:54:10;56.57;;;3.03;;
1308;SDS011;647;48.840;9.314;2024-03-25T10:56:36;56.67;;;2.97;;
1308;SDS011;647;48.840;9.314;2024-03-25T10:59:04;58.20;;;2.70;;
1308;SDS011;647;48.840;9.314;2024-03-25T11:01:32;56.90;;;3.10;;
1308;SDS011;647;48.840;9.314;2024-03-25T11:03:59;56.50;;;2.50;;
1308;SDS011;647;48.840;9.314;2024-03-25T11:06:26;59.57;;;2.80;;
1308;SDS011;647;48.840;9.314;2024-03-25T11:08:55;58.00;;;3.20;;
1308;SDS011;647;48.840;9.314;2024-03-25T11:11:22;57.67;;;3.27;;
1308;SDS011;647;48.840;9.314;2024-03-25T11:13:48;58.67;;;3.33;;
1308;SDS011;647;48.840;9.314;2024-03-25T11:16:27;56.90;;;2.80;;
1308;SDS011;647;48.840;9.314;2024-03-25T11:18:54;57.20;;;3.17;;
1308;SDS011;647;48.840;9.314;2024-03-25T11:21:24;56.90;;;3.17;;
1308;SDS011;647;48.840;9.314;2024-03-25T11:23:50;58.47;;;3.07;;
1308;SDS011;647;48.840;9.314;2024-03-25T11:26:18;59.37;;;3.50;;
1308;SDS011;647;48.840;9.314;2024-03-25T11:28:44;57.37;;;3.10;;
1308;SDS011;647;48.840;9.314;2024-03-25T11:31:10;57.07;;;3.47;;
1308;SDS011;647;48.840;9.314;2024-03-25T11:33:38;58.07;;;3.50;;
1308;SDS011;647;48.840;9.314;2024-03-25T11:36:05;58.30;;;3.20;;
1308;SDS011;647;48.840;9.314;2024-03-25T11:38:31;57.10;;;2.70;;
1308;SDS011;647;48.840;9.314;2024-03-25T11:40:57;56.07;;;2.53;;
1308;SDS011;647;48.840;9.314;2024-03-25T11:43:24;58.17;;;3.10;;
1308;SDS011;647;48.840;9.314;2024-03-25T11:45:50;58.40;;;2.97;;
1308;SDS011;647;48.840;9.314;2024-03-25T11:48:19;56.97;;;3.10;;
1308;SDS011;647;48.840;9.314;2024-03-25T11:50:47;58.50;;;3.03;;
1308;SDS011;647;48.840;9.314;2024-03-25T11:53:14;57.10;;;3.23;;
1308;SDS011;647;48.840;9.314;2024-03-25T11:55:40;58.60;;;3.60;;
1308;SDS011;647;48.840;9.314;2024-03-25T11:58:06;57.33;;;3.30;;
1308;SDS011;647;48.840;9.314;2024-03-25T12:00:33;56.70;;;2.97;;
1308;SDS011;647;48.840;9.314;2024-03-25T12:03:00;57.50;;;2.70;;
1308;SDS011;647;48.840;9.314;2024-03-25T12:05:26;56.00;;;3.30;;
1308;SDS011;647;48.840;9.314;2024-03-25T12:07:54;56.50;;;2.83;;
1308;SDS011;647;48.840;9.314;2024-03-25T12:10:20;56.50;;;2.50;;
1308;SDS011;647;48.840;9.314;2024-03-25T12:13:06;57.27;;;3.00;;
1308;SDS011;647;48.840;9.314;2024-03-25T12:15:34;55.97;;;2.70;;
1308;SDS011;647;48.840;9.314;2024-03-25T12:18:00;56.50;;;2.70;;
1308;SDS011;647;48.840;9.314;2024-03-25T12:20:26;58.00;;;2.60;;
1308;SDS011;647;48.840;9.314;2024-03-25T12:22:54;57.30;;;2.80;;
1308;SDS011;647;48.840;9.314;2024-03-25T12:25:20;56.47;;;2.90;;
1308;SDS011;647;48.840;9.314;2024-03-25T12:27:47;59.07;;;2.70;;
1308;SDS011;647;48.840;9.314;2024-03-25T12:30:13;58.90;;;3.00;;
1308;SDS011;647;48.840;9.314;2024-03-25T12:32:40;56.30;;;2.53;;
1308;SDS011;647;48.840;9.314;2024-03-25T12:35:07;56.00;;;2.67;;
1308;SDS011;647;48.840;9.314;2024-03-25T12:37:33;57.07;;;3.17;;
1308;SDS011;647;48.840;9.314;2024-03-25T12:40:01;56.50;;;3.13;;
1308;SDS011;647;48.840;9.314;2024-03-25T12:42:27;57.17;;;3.20;;
1308;SDS011;647;48.840;9.314;2024-03-25T12:44:53;57.37;;;3.07;;
1308;SDS011;647;48.840;9.314;2024-03-25T12:47:20;57.30;;;2.67;;
1308;SDS011;647;48.840;9.314;2024-03-25T12:49:46;57.03;;;3.03;;
1308;SDS011;647;48.840;9.314;2024-03-25T12:52:12;59.77;;;3.40;;
1308;SDS011;647;48.840;9.314;2024-03-25T12:54:39;56.10;;;2.60;;
1308;SDS011;647;48.840;9.314;2024-03-25T12:57:06;57.10;;;2.73;;
1308;SDS011;647;48.840;9.314;2024-03-25T12:59:33;56.37;;;2.50;;
1308;SDS011;647;48.840;9.314;2024-03-25T13:01:59;56.20;;;2.60;;
1308;SDS011;647;48.840;9.314;2024-03-25T13:04:25;56.07;;;2.90;;
1308;SDS011;647;48.840;9.314;2024-03-25T13:06:52;56.37;;;2.40;;
1308;SDS011;647;48.840;9.314;2024-03-25T13:09:18;59.00;;;3.30;;
1308;SDS011;647;48.840;9.314;2024-03-25T13:11:45;57.33;;;2.90;;
1308;SDS011;647;48.840;9.314;2024-03-25T13:14:12;56.00;;;2.80;;
1308;SDS011;647;48.840;9.314;2024-03-25T13:16:39;56.57;;;2.87;;
1308;SDS011;647;48.840;9.314;2024-03-25T13:19:06;58.40;;;3.17;;
1308;SDS011;647;48.840;9.314;2024-03-25T13:21:32;61.60;;;3.80;;
1308;SDS011;647;48.840;9.314;2024-03-25T13:23:59;56.90;;;3.00;;
1308;SDS011;647;48.840;9.314;2024-03-25T13:26:27;58.40;;;2.70;;
1308;SDS011;647;48.840;9.314;2024-03-25T13:28:54;57.80;;;3.10;;
1308;SDS011;647;48.840;9.314;2024-03-25T13:31:21;57.70;;;2.77;;
1308;SDS011;647;48.840;9.314;2024-03-25T13:33:48;56.60;;;2.77;;
1308;SDS011;647;48.840;9.314;2024-03-25T13:36:14;57.63;;;2.77;;
1308;SDS011;647;48.840;9.314;2024-03-25T13:38:40;56.27;;;2.70;;
1308;SDS011;647;48.840;9.314;2024-03-25T13:41:07;56.07;;;2.47;;
1308;SDS011;647;48.840;9.314;2024-03-25T13:43:33;56.40;;;2.90;;
1308;SDS011;647;48.840;9.314;2024-03-25T13:45:59;59.23;;;3.07;;
1308;SDS011;647;48.840;9.314;2024-03-25T13:48:27;55.70;;;2.80;;
1308;SDS011;647;48.840;9.314;2024-03-25T13:50:53;56.60;;;2.67;;
1308;SDS011;647;48.840;9.314;2024-03-25T13:53:20;57.07;;;2.23;;
1308;SDS011;647;48.840;9.314;2024-03-25T13:55:46;56.80;;;2.87;;
1308;SDS011;647;48.840;9.314;2024-03-25T13:58:13;56.50;;;2.33;;
1308;SDS011;647;48.840;9.314;2024-03-25T14:00:39;59.07;;;2.83;;
1308;SDS011;647;48.840;9.314;2024-03-25T14:03:05;57.57;;;2.80;;
1308;SDS011;647;48.840;9.314;2024-03-25T14:05:33;57.33;;;2.70;;
1308;SDS011;647;48.840;9.314;2024-03-25T14:08:00;56.50;;;2.47;;
1308;SDS011;647;48.840;9.314;2024-03-25T14:10:26;58.77;;;2.83;;
1308;SDS011;647;48.840;9.314;2024-03-25T14:12:52;56.97;;;2.60;;
1308;SDS011;647;48.840;9.314;2024-03-25T14:15:19;57.47;;;2.70;;
1308;SDS011;647;48.840;9.314;2024-03-25T14:17:45;57.07;;;3.13;;
1308;SDS011;647;48.840;9.314;2024-03-25T14:20:11;62.17;;;3.73;;
1308;SDS011;647;48.840;9.314;2024-03-25T14:22:39;62.30;;;3.47;;
1308;SDS011;647;48.840;9.314;2024-03-25T14:25:06;60.70;;;3.37;;
1308;SDS011;647;48.840;9.314;2024-03-25T14:27:32;58.17;;;3.20;;
1308;SDS011;647;48.840;9.314;2024-03-25T14:29:59;56.40;;;2.80;;
1308;SDS011;647;48.840;9.314;2024-03-25T14:32:25;55.70;;;2.57;;
1308;SDS011;647;48.840;9.314;2024-03-25T14:34:51;57.17;;;3.03;;
1308;SDS011;647;48.840;9.314;2024-03-25T14:37:18;56.77;;;2.87;;
1308;SDS011;647;48.840;9.314;2024-03-25T14:39:46;56.97;;;3.10;;
1308;SDS011;647;48.840;9.314;2024-03-25T14:42:12;58.40;;;2.60;;
1308;SDS011;647;48.840;9.314;2024-03-25T14:44:38;57.30;;;2.90;;
1308;SDS011;647;48.840;9.314;2024-03-25T14:47:05;57.37;;;3.20;;
1308;SDS011;647;48.840;9.314;2024-03-25T14:49:31;57.93;;;3.23;;
1308;SDS011;647;48.840;9.314;2024-03-25T14:51:57;58.77;;;3.00;;
1308;SDS011;647;48.840;9.314;2024-03-25T14:54:24;58.70;;;3.30;;
1308;SDS011;647;48.840;9.314;2024-03-25T14:57:00;61.70;;;3.20;;
1308;SDS011;647;48.840;9.314;2024-03-25T14:59:26;56.90;;;2.90;;
1308;SDS011;647;48.840;9.314;2024-03-25T15:01:53;57.37;;;2.80;;
1308;SDS011;647;48.840;9.314;2024-03-25T15:04:19;60.57;;;2.80;;
1308;SDS011;647;48.840;9.314;2024-03-25T15:06:45;56.87;;;3.10;;
1308;SDS011;647;48.840;9.314;2024-03-25T15:09:11;56.87;;;3.30;;
1308;SDS011;647;48.840;9.314;2024-03-25T15:11:38;60.90;;;3.17;;
1308;SDS011;647;48.840;9.314;2024-03-25T15:14:05;58.73;;;3.47;;